sensor_id;sensor_type;location;lat;lon;timestamp;P1;durP1;ratioP1;P2;durP2;ratioP2
32876;SDS011;19226;51.600;8.034;2022-07-23T00:00:03;15.85;;;10.70;;
32876;SDS011;19226;51.600;8.034;2022-07-23T00:02:33;12.57;;;9.75;;
32876;SDS011;19226;51.600;8.034;2022-07-23T00:04:59;17.30;;;10.50;;
32876;SDS011;19226;51.600;8.034;2022-07-23T00:07:25;15.30;;;9.90;;
32876;SDS011;19226;51.600;8.034;2022-07-23T00:09:53;14.45;;;9.73;;
32876;SDS011;19226;51.600;8.034;2022-07-23T00:12:19;16.30;;;9.40;;
32876;SDS011;19226;51.600;8.034;2022-07-23T00:14:46;16.20;;;10.43;;
32876;SDS011;19226;51.600;8.034;2022-07-23T00:17:12;21.75;;;10.48;;
32876;SDS011;19226;51.600;8.034;2022-07-23T00:19:38;14.60;;;10.43;;
32876;SDS011;19226;51.600;8.034;2022-07-23T00:22:04;21.17;;;11.13;;
32876;SDS011;19226;51.600;8.034;2022-07-23T00:24:31;18.50;;;11.10;;
32876;SDS011;19226;51.600;8.034;2022-07-23T00:26:57;16.50;;;10.75;;
32876;SDS011;19226;51.600;8.034;2022-07-23T00:29:23;22.67;;;13.05;;
32876;SDS011;19226;51.600;8.034;2022-07-23T00:31:49;24.48;;;11.75;;
32876;SDS011;19226;51.600;8.034;2022-07-23T00:34:15;29.48;;;12.55;;
32876;SDS011;19226;51.600;8.034;2022-07-23T00:36:41;19.83;;;11.35;;
32876;SDS011;19226;51.600;8.034;2022-07-23T00:41:53;18.58;;;11.52;;
32876;SDS011;19226;51.600;8.034;2022-07-23T00:44:21;21.63;;;11.98;;
32876;SDS011;19226;51.600;8.034;2022-07-23T00:46:49;23.05;;;12.48;;
32876;SDS011;19226;51.600;8.034;2022-07-23T00:49:20;18.83;;;12.23;;
32876;SDS011;19226;51.600;8.034;2022-07-23T00:51:48;20.38;;;11.45;;
32876;SDS011;19226;51.600;8.034;2022-07-23T00:54:16;21.35;;;11.15;;
32876;SDS011;19226;51.600;8.034;2022-07-23T00:56:43;16.97;;;11.90;;
32876;SDS011;19226;51.600;8.034;2022-07-23T00:59:11;28.60;;;13.23;;
32876;SDS011;19226;51.600;8.034;2022-07-23T01:01:38;18.88;;;12.75;;
32876;SDS011;19226;51.600;8.034;2022-07-23T01:06:51;24.80;;;13.38;;
32876;SDS011;19226;51.600;8.034;2022-07-23T01:09:18;19.33;;;13.02;;
32876;SDS011;19226;51.600;8.034;2022-07-23T01:11:45;19.92;;;13.15;;
32876;SDS011;19226;51.600;8.034;2022-07-23T01:14:16;29.98;;;13.30;;
32876;SDS011;19226;51.600;8.034;2022-07-23T01:16:44;24.77;;;13.55;;
32876;SDS011;19226;51.600;8.034;2022-07-23T01:19:12;27.23;;;15.13;;
32876;SDS011;19226;51.600;8.034;2022-07-23T01:21:40;35.92;;;14.60;;
32876;SDS011;19226;51.600;8.034;2022-07-23T01:24:14;27.48;;;15.15;;
32876;SDS011;19226;51.600;8.034;2022-07-23T01:26:51;23.20;;;14.55;;
32876;SDS011;19226;51.600;8.034;2022-07-23T01:29:20;24.70;;;13.80;;
32876;SDS011;19226;51.600;8.034;2022-07-23T01:31:48;22.95;;;14.82;;
32876;SDS011;19226;51.600;8.034;2022-07-23T01:34:14;23.98;;;14.90;;
32876;SDS011;19226;51.600;8.034;2022-07-23T01:36:41;27.48;;;14.27;;
32876;SDS011;19226;51.600;8.034;2022-07-23T01:39:09;25.00;;;15.27;;
32876;SDS011;19226;51.600;8.034;2022-07-23T01:44:24;24.85;;;14.70;;
32876;SDS011;19226;51.600;8.034;2022-07-23T01:46:51;30.25;;;15.65;;
32876;SDS011;19226;51.600;8.034;2022-07-23T01:49:18;28.55;;;15.73;;
32876;SDS011;19226;51.600;8.034;2022-07-23T01:52:03;24.33;;;14.95;;
32876;SDS011;19226;51.600;8.034;2022-07-23T01:54:39;22.05;;;13.75;;
32876;SDS011;19226;51.600;8.034;2022-07-23T01:57:08;24.63;;;14.90;;
32876;SDS011;19226;51.600;8.034;2022-07-23T01:59:34;24.73;;;15.88;;
32876;SDS011;19226;51.600;8.034;2022-07-23T02:02:01;26.48;;;15.20;;
32876;SDS011;19226;51.600;8.034;2022-07-23T02:04:30;31.75;;;15.20;;
32876;SDS011;19226;51.600;8.034;2022-07-23T02:06:56;33.30;;;14.20;;
32876;SDS011;19226;51.600;8.034;2022-07-23T02:09:22;31.05;;;15.77;;
32876;SDS011;19226;51.600;8.034;2022-07-23T02:11:50;25.25;;;14.43;;
32876;SDS011;19226;51.600;8.034;2022-07-23T02:14:18;27.63;;;14.77;;
32876;SDS011;19226;51.600;8.034;2022-07-23T02:16:45;36.88;;;15.48;;
32876;SDS011;19226;51.600;8.034;2022-07-23T02:19:12;32.63;;;15.38;;
32876;SDS011;19226;51.600;8.034;2022-07-23T02:21:38;31.27;;;15.80;;
32876;SDS011;19226;51.600;8.034;2022-07-23T02:24:04;25.08;;;15.15;;
32876;SDS011;19226;51.600;8.034;2022-07-23T02:26:31;27.52;;;16.17;;
32876;SDS011;19226;51.600;8.034;2022-07-23T02:29:05;22.27;;;14.27;;
32876;SDS011;19226;51.600;8.034;2022-07-23T02:31:31;32.20;;;14.75;;
32876;SDS011;19226;51.600;8.034;2022-07-23T02:33:58;26.42;;;15.60;;
32876;SDS011;19226;51.600;8.034;2022-07-23T02:36:27;25.73;;;15.18;;
32876;SDS011;19226;51.600;8.034;2022-07-23T02:38:54;23.30;;;14.57;;
32876;SDS011;19226;51.600;8.034;2022-07-23T02:41:21;30.92;;;14.90;;
32876;SDS011;19226;51.600;8.034;2022-07-23T02:43:47;38.15;;;13.57;;
32876;SDS011;19226;51.600;8.034;2022-07-23T02:46:14;35.42;;;15.10;;
32876;SDS011;19226;51.600;8.034;2022-07-23T02:48:41;38.25;;;14.95;;
32876;SDS011;19226;51.600;8.034;2022-07-23T02:51:07;29.10;;;15.02;;
32876;SDS011;19226;51.600;8.034;2022-07-23T02:53:38;24.30;;;12.98;;
32876;SDS011;19226;51.600;8.034;2022-07-23T02:56:04;28.02;;;14.68;;
32876;SDS011;19226;51.600;8.034;2022-07-23T02:58:31;28.23;;;13.07;;
32876;SDS011;19226;51.600;8.034;2022-07-23T03:00:57;28.08;;;14.52;;
32876;SDS011;19226;51.600;8.034;2022-07-23T03:03:25;31.33;;;14.32;;
32876;SDS011;19226;51.600;8.034;2022-07-23T03:05:51;18.45;;;11.23;;
32876;SDS011;19226;51.600;8.034;2022-07-23T03:08:17;19.85;;;12.73;;
32876;SDS011;19226;51.600;8.034;2022-07-23T03:10:48;29.00;;;12.43;;
32876;SDS011;19226;51.600;8.034;2022-07-23T03:13:15;23.55;;;12.57;;
32876;SDS011;19226;51.600;8.034;2022-07-23T03:15:41;24.77;;;13.32;;
32876;SDS011;19226;51.600;8.034;2022-07-23T03:18:08;24.17;;;12.65;;
32876;SDS011;19226;51.600;8.034;2022-07-23T03:20:34;22.20;;;12.32;;
32876;SDS011;19226;51.600;8.034;2022-07-23T03:23:00;21.25;;;12.90;;
32876;SDS011;19226;51.600;8.034;2022-07-23T03:25:27;24.13;;;12.00;;
32876;SDS011;19226;51.600;8.034;2022-07-23T03:27:55;27.88;;;13.18;;
32876;SDS011;19226;51.600;8.034;2022-07-23T03:30:21;18.77;;;12.73;;
32876;SDS011;19226;51.600;8.034;2022-07-23T03:32:49;18.23;;;12.25;;
32876;SDS011;19226;51.600;8.034;2022-07-23T03:35:15;23.02;;;14.05;;
32876;SDS011;19226;51.600;8.034;2022-07-23T03:37:49;24.00;;;13.15;;
32876;SDS011;19226;51.600;8.034;2022-07-23T03:40:16;17.90;;;12.13;;
32876;SDS011;19226;51.600;8.034;2022-07-23T03:42:50;19.90;;;12.77;;
32876;SDS011;19226;51.600;8.034;2022-07-23T03:45:16;22.13;;;13.65;;
32876;SDS011;19226;51.600;8.034;2022-07-23T03:47:42;25.52;;;14.25;;
32876;SDS011;19226;51.600;8.034;2022-07-23T03:50:10;26.27;;;13.45;;
32876;SDS011;19226;51.600;8.034;2022-07-23T03:52:37;23.02;;;12.85;;
32876;SDS011;19226;51.600;8.034;2022-07-23T03:55:04;32.65;;;14.02;;
32876;SDS011;19226;51.600;8.034;2022-07-23T03:57:30;23.15;;;13.57;;
32876;SDS011;19226;51.600;8.034;2022-07-23T03:59:57;22.08;;;13.93;;
32876;SDS011;19226;51.600;8.034;2022-07-23T04:02:25;26.58;;;13.75;;
32876;SDS011;19226;51.600;8.034;2022-07-23T04:04:51;28.45;;;14.45;;
32876;SDS011;19226;51.600;8.034;2022-07-23T04:07:17;21.92;;;13.00;;
32876;SDS011;19226;51.600;8.034;2022-07-23T04:09:43;20.77;;;13.73;;
32876;SDS011;19226;51.600;8.034;2022-07-23T04:12:12;37.10;;;12.25;;
32876;SDS011;19226;51.600;8.034;2022-07-23T04:14:40;95.30;;;14.73;;
32876;SDS011;19226;51.600;8.034;2022-07-23T04:17:06;59.53;;;13.38;;
32876;SDS011;19226;51.600;8.034;2022-07-23T04:19:32;24.35;;;10.20;;
32876;SDS011;19226;51.600;8.034;2022-07-23T04:22:03;66.70;;;11.13;;
32876;SDS011;19226;51.600;8.034;2022-07-23T04:24:32;69.15;;;10.70;;
32876;SDS011;19226;51.600;8.034;2022-07-23T04:26:58;47.10;;;9.45;;
32876;SDS011;19226;51.600;8.034;2022-07-23T04:29:24;17.33;;;6.97;;
32876;SDS011;19226;51.600;8.034;2022-07-23T04:31:51;23.73;;;7.82;;
32876;SDS011;19226;51.600;8.034;2022-07-23T04:34:17;11.77;;;8.27;;
32876;SDS011;19226;51.600;8.034;2022-07-23T04:36:44;15.50;;;10.18;;
32876;SDS011;19226;51.600;8.034;2022-07-23T04:39:10;38.90;;;9.52;;
32876;SDS011;19226;51.600;8.034;2022-07-23T04:41:36;18.40;;;10.73;;
32876;SDS011;19226;51.600;8.034;2022-07-23T04:44:05;17.23;;;10.77;;
32876;SDS011;19226;51.600;8.034;2022-07-23T04:46:33;47.22;;;10.65;;
32876;SDS011;19226;51.600;8.034;2022-07-23T04:48:59;63.97;;;11.02;;
32876;SDS011;19226;51.600;8.034;2022-07-23T04:51:25;16.80;;;8.93;;
32876;SDS011;19226;51.600;8.034;2022-07-23T04:53:53;52.63;;;10.13;;
32876;SDS011;19226;51.600;8.034;2022-07-23T04:56:22;102.18;;;10.43;;
32876;SDS011;19226;51.600;8.034;2022-07-23T04:58:48;40.60;;;10.45;;
32876;SDS011;19226;51.600;8.034;2022-07-23T05:01:17;102.15;;;11.35;;
32876;SDS011;19226;51.600;8.034;2022-07-23T05:03:44;71.00;;;11.00;;
32876;SDS011;19226;51.600;8.034;2022-07-23T05:06:11;65.88;;;11.32;;
32876;SDS011;19226;51.600;8.034;2022-07-23T05:08:37;102.05;;;11.07;;
32876;SDS011;19226;51.600;8.034;2022-07-23T05:11:04;45.03;;;11.40;;
32876;SDS011;19226;51.600;8.034;2022-07-23T05:13:30;22.17;;;11.45;;
32876;SDS011;19226;51.600;8.034;2022-07-23T05:15:57;56.22;;;10.77;;
32876;SDS011;19226;51.600;8.034;2022-07-23T05:18:25;90.85;;;10.27;;
32876;SDS011;19226;51.600;8.034;2022-07-23T05:20:52;48.65;;;10.90;;
32876;SDS011;19226;51.600;8.034;2022-07-23T05:23:21;83.85;;;11.48;;
32876;SDS011;19226;51.600;8.034;2022-07-23T05:25:48;35.50;;;9.93;;
32876;SDS011;19226;51.600;8.034;2022-07-23T05:28:16;11.70;;;10.13;;
32876;SDS011;19226;51.600;8.034;2022-07-23T05:30:43;14.88;;;10.48;;
32876;SDS011;19226;51.600;8.034;2022-07-23T05:33:13;41.03;;;10.82;;
32876;SDS011;19226;51.600;8.034;2022-07-23T05:38:31;15.95;;;11.48;;
32876;SDS011;19226;51.600;8.034;2022-07-23T05:41:00;31.35;;;12.35;;
32876;SDS011;19226;51.600;8.034;2022-07-23T05:43:29;19.05;;;12.38;;
32876;SDS011;19226;51.600;8.034;2022-07-23T05:45:57;19.13;;;13.25;;
32876;SDS011;19226;51.600;8.034;2022-07-23T05:48:24;22.35;;;12.93;;
32876;SDS011;19226;51.600;8.034;2022-07-23T05:54:01;27.17;;;14.40;;
32876;SDS011;19226;51.600;8.034;2022-07-23T05:56:32;20.08;;;13.70;;
32876;SDS011;19226;51.600;8.034;2022-07-23T05:58:59;20.80;;;14.48;;
32876;SDS011;19226;51.600;8.034;2022-07-23T06:01:26;22.70;;;15.20;;
32876;SDS011;19226;51.600;8.034;2022-07-23T06:04:00;21.08;;;13.95;;
32876;SDS011;19226;51.600;8.034;2022-07-23T06:09:18;23.80;;;14.23;;
32876;SDS011;19226;51.600;8.034;2022-07-23T06:11:44;24.58;;;15.07;;
32876;SDS011;19226;51.600;8.034;2022-07-23T06:14:11;23.23;;;15.38;;
32876;SDS011;19226;51.600;8.034;2022-07-23T06:16:53;21.10;;;14.23;;
32876;SDS011;19226;51.600;8.034;2022-07-23T06:19:29;25.50;;;15.38;;
32876;SDS011;19226;51.600;8.034;2022-07-23T06:21:55;25.10;;;15.55;;
32876;SDS011;19226;51.600;8.034;2022-07-23T06:24:21;25.30;;;16.75;;
32876;SDS011;19226;51.600;8.034;2022-07-23T06:26:49;21.92;;;16.20;;
32876;SDS011;19226;51.600;8.034;2022-07-23T06:29:16;23.80;;;15.05;;
32876;SDS011;19226;51.600;8.034;2022-07-23T06:31:43;22.75;;;15.25;;
32876;SDS011;19226;51.600;8.034;2022-07-23T06:34:13;22.40;;;14.75;;
32876;SDS011;19226;51.600;8.034;2022-07-23T06:36:39;23.83;;;15.40;;
32876;SDS011;19226;51.600;8.034;2022-07-23T06:39:06;22.90;;;15.13;;
32876;SDS011;19226;51.600;8.034;2022-07-23T06:41:33;28.88;;;16.25;;
32876;SDS011;19226;51.600;8.034;2022-07-23T06:43:59;27.42;;;17.30;;
32876;SDS011;19226;51.600;8.034;2022-07-23T06:46:28;26.08;;;16.27;;
32876;SDS011;19226;51.600;8.034;2022-07-23T06:48:55;24.67;;;15.25;;
32876;SDS011;19226;51.600;8.034;2022-07-23T06:51:21;27.00;;;15.63;;
32876;SDS011;19226;51.600;8.034;2022-07-23T06:53:48;24.80;;;14.55;;
32876;SDS011;19226;51.600;8.034;2022-07-23T06:56:14;25.45;;;15.05;;
32876;SDS011;19226;51.600;8.034;2022-07-23T06:58:40;26.10;;;16.13;;
32876;SDS011;19226;51.600;8.034;2022-07-23T07:01:06;23.23;;;16.38;;
32876;SDS011;19226;51.600;8.034;2022-07-23T07:03:34;31.80;;;14.98;;
32876;SDS011;19226;51.600;8.034;2022-07-23T07:06:00;32.97;;;21.77;;
32876;SDS011;19226;51.600;8.034;2022-07-23T07:11:15;23.08;;;15.18;;
32876;SDS011;19226;51.600;8.034;2022-07-23T07:13:42;26.40;;;16.02;;
32876;SDS011;19226;51.600;8.034;2022-07-23T07:16:08;27.02;;;15.15;;
32876;SDS011;19226;51.600;8.034;2022-07-23T07:18:35;24.05;;;14.07;;
32876;SDS011;19226;51.600;8.034;2022-07-23T07:21:03;22.35;;;12.48;;
32876;SDS011;19226;51.600;8.034;2022-07-23T07:23:30;27.05;;;14.15;;
32876;SDS011;19226;51.600;8.034;2022-07-23T07:25:56;24.23;;;15.07;;
32876;SDS011;19226;51.600;8.034;2022-07-23T07:28:22;18.25;;;13.70;;
32876;SDS011;19226;51.600;8.034;2022-07-23T07:30:48;21.17;;;14.35;;
32876;SDS011;19226;51.600;8.034;2022-07-23T07:33:14;23.50;;;14.65;;
32876;SDS011;19226;51.600;8.034;2022-07-23T07:35:41;20.55;;;14.98;;
32876;SDS011;19226;51.600;8.034;2022-07-23T07:38:07;25.48;;;13.60;;
32876;SDS011;19226;51.600;8.034;2022-07-23T07:40:33;19.98;;;13.95;;
32876;SDS011;19226;51.600;8.034;2022-07-23T07:42:59;19.10;;;13.48;;
32876;SDS011;19226;51.600;8.034;2022-07-23T07:45:27;18.20;;;12.93;;
32876;SDS011;19226;51.600;8.034;2022-07-23T07:47:53;19.00;;;12.45;;
32876;SDS011;19226;51.600;8.034;2022-07-23T07:50:19;17.20;;;11.75;;
32876;SDS011;19226;51.600;8.034;2022-07-23T07:52:46;16.55;;;10.60;;
32876;SDS011;19226;51.600;8.034;2022-07-23T07:55:13;16.67;;;11.63;;
32876;SDS011;19226;51.600;8.034;2022-07-23T07:57:40;14.75;;;11.38;;
32876;SDS011;19226;51.600;8.034;2022-07-23T08:00:07;18.42;;;11.07;;
32876;SDS011;19226;51.600;8.034;2022-07-23T08:02:41;22.88;;;11.88;;
32876;SDS011;19226;51.600;8.034;2022-07-23T08:05:13;17.75;;;11.07;;
32876;SDS011;19226;51.600;8.034;2022-07-23T08:07:39;20.25;;;11.13;;
32876;SDS011;19226;51.600;8.034;2022-07-23T08:10:10;18.90;;;11.52;;
32876;SDS011;19226;51.600;8.034;2022-07-23T08:12:40;15.32;;;10.48;;
32876;SDS011;19226;51.600;8.034;2022-07-23T08:15:10;16.05;;;9.90;;
32876;SDS011;19226;51.600;8.034;2022-07-23T08:17:39;19.85;;;9.55;;
32876;SDS011;19226;51.600;8.034;2022-07-23T08:20:07;18.23;;;11.40;;
32876;SDS011;19226;51.600;8.034;2022-07-23T08:22:45;14.13;;;10.13;;
32876;SDS011;19226;51.600;8.034;2022-07-23T08:25:11;14.85;;;9.85;;
32876;SDS011;19226;51.600;8.034;2022-07-23T08:27:39;16.70;;;9.60;;
32876;SDS011;19226;51.600;8.034;2022-07-23T08:30:06;11.65;;;8.90;;
32876;SDS011;19226;51.600;8.034;2022-07-23T08:35:25;14.32;;;10.55;;
32876;SDS011;19226;51.600;8.034;2022-07-23T08:38:02;14.52;;;10.23;;
32876;SDS011;19226;51.600;8.034;2022-07-23T08:40:33;16.20;;;9.43;;
32876;SDS011;19226;51.600;8.034;2022-07-23T08:43:06;11.35;;;7.70;;
32876;SDS011;19226;51.600;8.034;2022-07-23T08:45:37;10.68;;;7.78;;
32876;SDS011;19226;51.600;8.034;2022-07-23T08:48:06;19.48;;;7.47;;
32876;SDS011;19226;51.600;8.034;2022-07-23T08:50:35;15.35;;;7.97;;
32876;SDS011;19226;51.600;8.034;2022-07-23T08:53:03;12.87;;;7.60;;
32876;SDS011;19226;51.600;8.034;2022-07-23T08:55:32;17.60;;;9.43;;
32876;SDS011;19226;51.600;8.034;2022-07-23T08:58:00;14.70;;;9.32;;
32876;SDS011;19226;51.600;8.034;2022-07-23T09:03:16;13.18;;;8.90;;
32876;SDS011;19226;51.600;8.034;2022-07-23T09:05:44;13.52;;;8.35;;
32876;SDS011;19226;51.600;8.034;2022-07-23T09:08:12;16.95;;;9.05;;
32876;SDS011;19226;51.600;8.034;2022-07-23T09:13:47;14.82;;;8.07;;
32876;SDS011;19226;51.600;8.034;2022-07-23T09:18:57;13.32;;;8.40;;
32876;SDS011;19226;51.600;8.034;2022-07-23T09:23:59;12.40;;;7.32;;
32876;SDS011;19226;51.600;8.034;2022-07-23T09:26:37;13.13;;;7.90;;
32876;SDS011;19226;51.600;8.034;2022-07-23T09:29:08;11.85;;;5.95;;
32876;SDS011;19226;51.600;8.034;2022-07-23T09:34:18;7.72;;;5.13;;
32876;SDS011;19226;51.600;8.034;2022-07-23T09:37:12;9.65;;;5.63;;
32876;SDS011;19226;51.600;8.034;2022-07-23T09:39:42;8.77;;;5.75;;
32876;SDS011;19226;51.600;8.034;2022-07-23T09:42:15;9.07;;;4.90;;
32876;SDS011;19226;51.600;8.034;2022-07-23T09:44:49;10.18;;;3.90;;
32876;SDS011;19226;51.600;8.034;2022-07-23T09:47:23;8.73;;;4.43;;
32876;SDS011;19226;51.600;8.034;2022-07-23T09:55:13;6.75;;;4.18;;
32876;SDS011;19226;51.600;8.034;2022-07-23T09:57:40;7.47;;;4.63;;
32876;SDS011;19226;51.600;8.034;2022-07-23T10:00:10;8.40;;;4.27;;
32876;SDS011;19226;51.600;8.034;2022-07-23T10:02:38;6.22;;;3.85;;
32876;SDS011;19226;51.600;8.034;2022-07-23T10:05:25;6.85;;;4.20;;
32876;SDS011;19226;51.600;8.034;2022-07-23T10:08:13;3.78;;;3.35;;
32876;SDS011;19226;51.600;8.034;2022-07-23T10:10:53;4.45;;;3.85;;
32876;SDS011;19226;51.600;8.034;2022-07-23T10:13:20;7.18;;;3.45;;
32876;SDS011;19226;51.600;8.034;2022-07-23T10:16:05;3.92;;;3.42;;
32876;SDS011;19226;51.600;8.034;2022-07-23T10:18:33;3.47;;;2.63;;
32876;SDS011;19226;51.600;8.034;2022-07-23T10:21:00;5.28;;;2.95;;
32876;SDS011;19226;51.600;8.034;2022-07-23T10:23:41;3.45;;;2.97;;
32876;SDS011;19226;51.600;8.034;2022-07-23T10:26:41;5.03;;;2.80;;
32876;SDS011;19226;51.600;8.034;2022-07-23T10:29:18;5.80;;;3.08;;
32876;SDS011;19226;51.600;8.034;2022-07-23T10:32:02;7.25;;;2.78;;
32876;SDS011;19226;51.600;8.034;2022-07-23T10:38:35;5.10;;;2.75;;
32876;SDS011;19226;51.600;8.034;2022-07-23T10:41:09;6.75;;;3.00;;
32876;SDS011;19226;51.600;8.034;2022-07-23T10:43:39;6.15;;;3.17;;
32876;SDS011;19226;51.600;8.034;2022-07-23T10:46:22;5.95;;;3.05;;
32876;SDS011;19226;51.600;8.034;2022-07-23T10:49:28;5.57;;;2.70;;
32876;SDS011;19226;51.600;8.034;2022-07-23T10:54:49;5.90;;;2.40;;
32876;SDS011;19226;51.600;8.034;2022-07-23T10:57:50;4.22;;;3.17;;
32876;SDS011;19226;51.600;8.034;2022-07-23T11:00:22;3.35;;;2.80;;
32876;SDS011;19226;51.600;8.034;2022-07-23T11:02:51;3.17;;;2.28;;
32876;SDS011;19226;51.600;8.034;2022-07-23T11:05:20;3.03;;;2.40;;
32876;SDS011;19226;51.600;8.034;2022-07-23T11:10:35;3.97;;;2.60;;
32876;SDS011;19226;51.600;8.034;2022-07-23T11:24:05;2.85;;;2.30;;
32876;SDS011;19226;51.600;8.034;2022-07-23T11:34:32;8.70;;;2.00;;
32876;SDS011;19226;51.600;8.034;2022-07-23T11:37:02;2.13;;;1.92;;
32876;SDS011;19226;51.600;8.034;2022-07-23T11:39:30;5.40;;;2.20;;
32876;SDS011;19226;51.600;8.034;2022-07-23T11:41:58;4.47;;;2.45;;
32876;SDS011;19226;51.600;8.034;2022-07-23T11:44:29;7.70;;;1.98;;
32876;SDS011;19226;51.600;8.034;2022-07-23T11:46:58;4.68;;;1.73;;
32876;SDS011;19226;51.600;8.034;2022-07-23T11:49:29;2.90;;;1.40;;
32876;SDS011;19226;51.600;8.034;2022-07-23T11:52:09;4.82;;;1.80;;
32876;SDS011;19226;51.600;8.034;2022-07-23T11:57:24;7.80;;;2.15;;
32876;SDS011;19226;51.600;8.034;2022-07-23T11:59:53;4.78;;;2.53;;
32876;SDS011;19226;51.600;8.034;2022-07-23T12:02:21;4.32;;;1.83;;
32876;SDS011;19226;51.600;8.034;2022-07-23T12:04:48;2.25;;;1.63;;
32876;SDS011;19226;51.600;8.034;2022-07-23T12:07:49;1.97;;;1.80;;
32876;SDS011;19226;51.600;8.034;2022-07-23T12:10:20;2.92;;;1.95;;
32876;SDS011;19226;51.600;8.034;2022-07-23T12:15:21;5.07;;;1.60;;
32876;SDS011;19226;51.600;8.034;2022-07-23T12:17:50;5.00;;;2.00;;
32876;SDS011;19226;51.600;8.034;2022-07-23T12:20:19;3.80;;;1.20;;
32876;SDS011;19226;51.600;8.034;2022-07-23T12:23:07;10.48;;;1.27;;
32876;SDS011;19226;51.600;8.034;2022-07-23T12:25:36;2.40;;;1.33;;
32876;SDS011;19226;51.600;8.034;2022-07-23T12:28:11;4.90;;;1.60;;
32876;SDS011;19226;51.600;8.034;2022-07-23T12:30:49;3.92;;;1.40;;
32876;SDS011;19226;51.600;8.034;2022-07-23T12:33:22;2.95;;;1.13;;
32876;SDS011;19226;51.600;8.034;2022-07-23T12:35:52;2.63;;;1.30;;
32876;SDS011;19226;51.600;8.034;2022-07-23T12:38:21;5.97;;;1.25;;
32876;SDS011;19226;51.600;8.034;2022-07-23T12:40:50;1.65;;;1.23;;
32876;SDS011;19226;51.600;8.034;2022-07-23T12:43:27;8.63;;;1.27;;
32876;SDS011;19226;51.600;8.034;2022-07-23T12:51:19;3.00;;;1.30;;
32876;SDS011;19226;51.600;8.034;2022-07-23T12:54:04;2.08;;;1.13;;
32876;SDS011;19226;51.600;8.034;2022-07-23T12:56:34;2.97;;;1.27;;
32876;SDS011;19226;51.600;8.034;2022-07-23T13:01:39;4.80;;;1.10;;
32876;SDS011;19226;51.600;8.034;2022-07-23T13:04:13;3.80;;;1.80;;
32876;SDS011;19226;51.600;8.034;2022-07-23T13:09:16;7.15;;;1.20;;
32876;SDS011;19226;51.600;8.034;2022-07-23T13:11:45;1.83;;;0.90;;
32876;SDS011;19226;51.600;8.034;2022-07-23T13:14:15;1.15;;;0.90;;
32876;SDS011;19226;51.600;8.034;2022-07-23T13:16:44;6.28;;;1.33;;
32876;SDS011;19226;51.600;8.034;2022-07-23T13:19:12;7.07;;;1.25;;
32876;SDS011;19226;51.600;8.034;2022-07-23T13:21:38;3.08;;;1.45;;
32876;SDS011;19226;51.600;8.034;2022-07-23T13:24:06;5.70;;;1.30;;
32876;SDS011;19226;51.600;8.034;2022-07-23T13:26:39;1.75;;;0.95;;
32876;SDS011;19226;51.600;8.034;2022-07-23T13:29:09;2.75;;;1.10;;
32876;SDS011;19226;51.600;8.034;2022-07-23T13:31:35;5.57;;;1.35;;
32876;SDS011;19226;51.600;8.034;2022-07-23T13:34:02;1.13;;;1.02;;
32876;SDS011;19226;51.600;8.034;2022-07-23T13:36:32;3.38;;;1.40;;
32876;SDS011;19226;51.600;8.034;2022-07-23T13:41:44;1.77;;;1.15;;
32876;SDS011;19226;51.600;8.034;2022-07-23T13:44:10;1.48;;;1.13;;
32876;SDS011;19226;51.600;8.034;2022-07-23T13:46:36;4.93;;;0.88;;
32876;SDS011;19226;51.600;8.034;2022-07-23T13:49:02;2.55;;;1.20;;
32876;SDS011;19226;51.600;8.034;2022-07-23T13:51:31;2.75;;;1.05;;
32876;SDS011;19226;51.600;8.034;2022-07-23T13:53:58;3.30;;;0.88;;
32876;SDS011;19226;51.600;8.034;2022-07-23T13:56:24;1.17;;;0.82;;
32876;SDS011;19226;51.600;8.034;2022-07-23T13:58:50;2.67;;;0.90;;
32876;SDS011;19226;51.600;8.034;2022-07-23T14:01:16;2.65;;;0.73;;
32876;SDS011;19226;51.600;8.034;2022-07-23T14:03:43;3.78;;;0.90;;
32876;SDS011;19226;51.600;8.034;2022-07-23T14:06:09;2.10;;;0.77;;
32876;SDS011;19226;51.600;8.034;2022-07-23T14:08:35;0.75;;;0.65;;
32876;SDS011;19226;51.600;8.034;2022-07-23T14:11:02;1.83;;;1.00;;
32876;SDS011;19226;51.600;8.034;2022-07-23T14:13:29;6.30;;;1.02;;
32876;SDS011;19226;51.600;8.034;2022-07-23T14:15:55;1.23;;;0.90;;
32876;SDS011;19226;51.600;8.034;2022-07-23T14:18:22;1.48;;;0.70;;
32876;SDS011;19226;51.600;8.034;2022-07-23T14:20:50;4.35;;;0.80;;
32876;SDS011;19226;51.600;8.034;2022-07-23T14:23:17;2.80;;;1.17;;
32876;SDS011;19226;51.600;8.034;2022-07-23T14:25:43;3.72;;;0.93;;
32876;SDS011;19226;51.600;8.034;2022-07-23T14:28:09;10.02;;;1.05;;
32876;SDS011;19226;51.600;8.034;2022-07-23T14:30:38;2.90;;;1.10;;
32876;SDS011;19226;51.600;8.034;2022-07-23T14:33:04;3.33;;;0.90;;
32876;SDS011;19226;51.600;8.034;2022-07-23T14:35:30;1.42;;;0.85;;
32876;SDS011;19226;51.600;8.034;2022-07-23T14:37:57;3.75;;;1.38;;
32876;SDS011;19226;51.600;8.034;2022-07-23T14:40:24;2.20;;;1.05;;
32876;SDS011;19226;51.600;8.034;2022-07-23T14:42:56;2.05;;;1.05;;
32876;SDS011;19226;51.600;8.034;2022-07-23T14:48:13;2.15;;;1.20;;
32876;SDS011;19226;51.600;8.034;2022-07-23T14:50:39;2.72;;;1.20;;
32876;SDS011;19226;51.600;8.034;2022-07-23T14:53:06;4.07;;;1.63;;
32876;SDS011;19226;51.600;8.034;2022-07-23T14:55:32;2.28;;;0.90;;
32876;SDS011;19226;51.600;8.034;2022-07-23T14:57:59;3.20;;;0.85;;
32876;SDS011;19226;51.600;8.034;2022-07-23T15:00:26;2.47;;;0.90;;
32876;SDS011;19226;51.600;8.034;2022-07-23T15:02:59;1.90;;;0.80;;
32876;SDS011;19226;51.600;8.034;2022-07-23T15:05:28;1.48;;;0.70;;
32876;SDS011;19226;51.600;8.034;2022-07-23T15:07:54;3.08;;;1.02;;
32876;SDS011;19226;51.600;8.034;2022-07-23T15:10:22;2.20;;;0.70;;
32876;SDS011;19226;51.600;8.034;2022-07-23T15:12:49;2.78;;;0.85;;
32876;SDS011;19226;51.600;8.034;2022-07-23T15:15:15;1.35;;;0.60;;
32876;SDS011;19226;51.600;8.034;2022-07-23T15:17:41;9.30;;;0.88;;
32876;SDS011;19226;51.600;8.034;2022-07-23T15:20:08;3.42;;;1.10;;
32876;SDS011;19226;51.600;8.034;2022-07-23T15:22:35;2.88;;;0.82;;
32876;SDS011;19226;51.600;8.034;2022-07-23T15:25:03;1.65;;;1.25;;
32876;SDS011;19226;51.600;8.034;2022-07-23T15:27:30;1.15;;;1.05;;
32876;SDS011;19226;51.600;8.034;2022-07-23T15:29:57;1.10;;;0.80;;
32876;SDS011;19226;51.600;8.034;2022-07-23T15:32:24;2.00;;;1.00;;
32876;SDS011;19226;51.600;8.034;2022-07-23T15:34:55;2.55;;;1.05;;
32876;SDS011;19226;51.600;8.034;2022-07-23T15:37:22;2.25;;;1.13;;
32876;SDS011;19226;51.600;8.034;2022-07-23T15:39:50;0.90;;;0.90;;
32876;SDS011;19226;51.600;8.034;2022-07-23T15:42:17;3.72;;;1.20;;
32876;SDS011;19226;51.600;8.034;2022-07-23T15:44:44;2.65;;;1.17;;
32876;SDS011;19226;51.600;8.034;2022-07-23T15:47:14;1.65;;;1.27;;
32876;SDS011;19226;51.600;8.034;2022-07-23T15:49:41;1.77;;;1.08;;
32876;SDS011;19226;51.600;8.034;2022-07-23T15:52:10;2.25;;;1.42;;
32876;SDS011;19226;51.600;8.034;2022-07-23T15:54:37;2.67;;;1.00;;
32876;SDS011;19226;51.600;8.034;2022-07-23T15:57:07;2.17;;;1.02;;
32876;SDS011;19226;51.600;8.034;2022-07-23T15:59:34;3.13;;;1.40;;
32876;SDS011;19226;51.600;8.034;2022-07-23T16:02:00;1.38;;;0.93;;
32876;SDS011;19226;51.600;8.034;2022-07-23T16:04:27;1.38;;;1.10;;
32876;SDS011;19226;51.600;8.034;2022-07-23T16:06:53;5.50;;;0.82;;
32876;SDS011;19226;51.600;8.034;2022-07-23T16:09:22;3.63;;;1.10;;
32876;SDS011;19226;51.600;8.034;2022-07-23T16:11:49;1.90;;;0.88;;
32876;SDS011;19226;51.600;8.034;2022-07-23T16:14:16;8.50;;;1.30;;